createdAt,value
2018-12-03T00:03:28.972Z,8.48
2018-12-03T00:08:31.386Z,6.65
2018-12-03T00:13:33.850Z,5.60
2018-12-03T00:18:36.573Z,5.37
2018-12-03T00:23:38.990Z,5.53
2018-12-03T00:28:41.570Z,3.98
2018-12-03T00:33:44.007Z,2.75
2018-12-03T00:38:53.166Z,2.75
2018-12-03T00:43:55.691Z,1.80
2018-12-03T00:48:58.134Z,2.10
2018-12-03T00:54:00.624Z,1.92
2018-12-03T00:59:03.142Z,2.33
2018-12-03T01:04:05.971Z,1.35
2018-12-03T01:09:08.895Z,1.30
2018-12-03T01:14:11.339Z,1.00
2018-12-03T01:19:13.748Z,1.10
2018-12-03T01:24:16.185Z,1.17
2018-12-03T01:29:18.616Z,0.95
2018-12-03T01:34:21.329Z,1.40
2018-12-03T01:39:23.971Z,1.00
2018-12-03T01:44:26.404Z,0.90
2018-12-03T01:49:28.902Z,1.10
2018-12-03T01:54:31.263Z,1.90
2018-12-03T01:59:33.997Z,0.90
2018-12-03T02:04:36.650Z,1.00
2018-12-03T02:09:39.153Z,0.90
2018-12-03T02:14:41.534Z,1.07
2018-12-03T02:19:43.987Z,1.00
2018-12-03T02:24:46.507Z,0.80
2018-12-03T02:29:48.965Z,1.10
2018-12-03T02:34:51.438Z,1.62
2018-12-03T02:39:53.997Z,1.77
2018-12-03T02:44:56.443Z,2.12
2018-12-03T02:49:58.908Z,2.83
2018-12-03T02:55:01.399Z,2.90
2018-12-03T03:00:10.836Z,2.90
2018-12-03T03:05:14.472Z,2.98
2018-12-03T03:10:16.914Z,2.50
2018-12-03T03:15:19.342Z,2.17
2018-12-03T03:20:21.850Z,2.17
2018-12-03T03:25:24.324Z,1.77
2018-12-03T03:30:26.733Z,1.80
2018-12-03T03:35:29.293Z,1.40
2018-12-03T03:40:32.347Z,1.12
2018-12-03T03:45:35.148Z,1.17
2018-12-03T03:50:37.745Z,1.05
2018-12-03T03:55:40.537Z,1.42
2018-12-03T04:00:43.495Z,1.10
2018-12-03T04:05:46.229Z,1.50
2018-12-03T04:10:48.898Z,2.35
2018-12-03T04:15:52.519Z,3.08
2018-12-03T04:20:55.154Z,3.30
2018-12-03T04:25:57.726Z,4.78
2018-12-03T04:31:00.351Z,5.20
2018-12-03T04:36:03.223Z,4.92
2018-12-03T04:41:05.877Z,5.83
2018-12-03T04:46:08.541Z,6.83
2018-12-03T04:51:11.194Z,7.72
2018-12-03T04:56:13.908Z,9.35
2018-12-03T05:01:16.588Z,8.10
2018-12-03T05:06:19.266Z,8.30
2018-12-03T05:11:21.742Z,8.58
2018-12-03T05:16:24.194Z,8.60
2018-12-03T05:21:26.704Z,9.53
2018-12-03T05:26:29.251Z,8.90
2018-12-03T05:31:31.830Z,9.70
2018-12-03T05:36:34.298Z,9.40
2018-12-03T05:41:36.750Z,8.33
2018-12-03T05:46:39.258Z,6.53
2018-12-03T05:51:41.708Z,5.62
2018-12-03T05:56:44.182Z,4.42
2018-12-03T06:01:46.706Z,3.20
2018-12-03T06:06:49.165Z,2.80
2018-12-03T06:11:51.570Z,2.70
2018-12-03T06:16:54.122Z,2.60
2018-12-03T06:21:56.535Z,2.98
2018-12-03T06:26:59.823Z,3.22
2018-12-03T06:32:02.647Z,3.98
2018-12-03T06:37:12.498Z,5.70
2018-12-03T06:42:15.141Z,6.25
2018-12-03T06:47:17.625Z,7.87
2018-12-03T06:52:19.989Z,7.78
2018-12-03T06:57:22.391Z,8.60
2018-12-03T07:02:24.857Z,8.48
2018-12-03T07:07:27.878Z,7.05
2018-12-03T07:12:30.302Z,6.95
2018-12-03T07:17:32.729Z,5.72
2018-12-03T07:22:35.137Z,3.95
2018-12-03T07:27:37.598Z,3.85
2018-12-03T07:32:40.052Z,2.62
2018-12-03T07:37:42.790Z,2.67
2018-12-03T07:42:45.294Z,2.30
2018-12-03T07:47:48.241Z,1.92
2018-12-03T07:52:51.867Z,2.37
2018-12-03T07:57:58.698Z,2.15
2018-12-03T08:03:01.182Z,2.47
2018-12-03T08:08:03.668Z,3.08
2018-12-03T08:13:08.076Z,3.50
2018-12-03T08:18:13.406Z,3.30
2018-12-03T08:23:19.546Z,3.17
2018-12-03T08:28:21.930Z,3.47
2018-12-03T08:33:24.367Z,3.62
2018-12-03T08:38:26.778Z,3.47
2018-12-03T08:43:29.222Z,3.30
2018-12-03T08:48:35.490Z,3.70
2018-12-03T08:53:38.072Z,3.45
2018-12-03T08:58:41.943Z,3.30
2018-12-03T09:03:47.691Z,3.58
2018-12-03T09:08:50.956Z,3.45
2018-12-03T09:13:53.699Z,3.22
2018-12-03T09:18:56.105Z,2.98
2018-12-03T09:23:59.896Z,3.45
2018-12-03T09:29:02.398Z,2.95
2018-12-03T09:34:05.330Z,3.35
2018-12-03T09:39:13.762Z,3.50
2018-12-03T09:44:16.168Z,3.10
2018-12-03T09:49:18.534Z,3.33
2018-12-03T09:54:20.926Z,3.52
2018-12-03T09:59:24.002Z,3.17
2018-12-03T10:04:29.216Z,3.85
2018-12-03T10:09:35.814Z,3.72
2018-12-03T10:14:38.336Z,4.47
2018-12-03T10:19:40.698Z,4.03
2018-12-03T10:24:43.156Z,4.28
2018-12-03T10:29:45.559Z,4.78
2018-12-03T10:34:48.079Z,4.40
2018-12-03T10:39:51.114Z,4.50
2018-12-03T10:44:53.474Z,4.83
2018-12-03T10:49:56.852Z,4.53
2018-12-03T10:54:59.258Z,4.20
2018-12-03T11:00:01.774Z,3.70
2018-12-03T11:07:15.267Z,3.72
2018-12-03T11:12:17.749Z,3.12
2018-12-03T11:17:20.299Z,2.20
2018-12-03T11:22:22.773Z,2.10
2018-12-03T11:27:25.306Z,2.00
2018-12-03T11:32:27.681Z,1.92
2018-12-03T11:37:30.681Z,1.57
2018-12-03T11:42:36.494Z,1.47
2018-12-03T11:47:38.943Z,1.62
2018-12-03T11:52:41.400Z,1.60
2018-12-03T11:57:43.882Z,1.40
2018-12-03T12:02:46.671Z,1.00
2018-12-03T12:07:49.194Z,1.40
2018-12-03T12:12:51.861Z,1.02
2018-12-03T12:17:54.526Z,1.35
2018-12-03T12:22:57.267Z,1.00
2018-12-03T12:28:00.055Z,1.10
2018-12-03T12:33:02.530Z,1.10
2018-12-03T12:38:05.402Z,1.32
2018-12-03T12:43:08.086Z,1.65
2018-12-03T12:48:10.470Z,1.20
2018-12-03T12:53:12.912Z,1.40
2018-12-03T12:58:15.326Z,0.90
2018-12-03T13:03:18.077Z,1.00
2018-12-03T13:08:20.542Z,1.20
2018-12-03T13:13:24.129Z,1.20
2018-12-03T13:18:26.894Z,1.25
2018-12-03T13:23:29.418Z,1.10
2018-12-03T13:28:32.331Z,1.15
2018-12-03T13:33:35.320Z,1.20
2018-12-03T13:38:37.727Z,1.10
2018-12-03T13:43:40.216Z,1.30
2018-12-03T13:48:43.076Z,1.50
2018-12-03T13:53:45.633Z,1.80
2018-12-03T13:58:48.194Z,1.70
2018-12-03T14:03:50.683Z,1.85
2018-12-03T14:09:08.258Z,1.65
2018-12-03T14:14:55.411Z,1.72
2018-12-03T14:19:59.636Z,1.57
2018-12-03T14:25:02.100Z,1.55
2018-12-03T14:30:05.187Z,1.45
2018-12-03T14:35:11.101Z,1.60
2018-12-03T14:40:13.574Z,1.57
2018-12-03T14:45:16.074Z,1.75
2018-12-03T14:50:18.579Z,1.50
2018-12-03T14:55:21.097Z,1.70
2018-12-03T15:00:23.802Z,1.52
2018-12-03T15:05:26.399Z,1.70
2018-12-03T15:10:29.067Z,1.62
2018-12-03T15:15:31.462Z,1.90
2018-12-03T15:20:33.926Z,2.00
2018-12-03T15:25:36.365Z,1.87
2018-12-03T15:30:38.791Z,1.90
2018-12-03T15:35:41.242Z,2.05
2018-12-03T15:40:43.738Z,2.42
2018-12-03T15:45:46.186Z,1.72
2018-12-03T15:50:48.957Z,1.87
2018-12-03T15:55:51.419Z,1.70
2018-12-03T16:00:53.931Z,1.67
2018-12-03T16:05:56.328Z,1.80
2018-12-03T16:10:58.830Z,2.75
2018-12-03T16:16:01.311Z,2.37
2018-12-03T16:21:03.801Z,2.00
2018-12-03T16:26:06.277Z,2.33
2018-12-03T16:31:08.663Z,1.95
2018-12-03T16:36:11.240Z,2.17
2018-12-03T16:41:13.736Z,2.25
2018-12-03T16:46:16.102Z,2.27
2018-12-03T16:51:18.470Z,3.22
2018-12-03T16:56:20.913Z,3.90
2018-12-03T17:01:23.359Z,5.15
2018-12-03T17:06:25.747Z,5.62
2018-12-03T17:11:28.250Z,5.60
2018-12-03T17:16:30.786Z,6.30
2018-12-03T17:22:18.047Z,6.70
2018-12-03T17:27:20.498Z,6.53
2018-12-03T17:32:22.921Z,5.70
2018-12-03T17:37:25.395Z,6.03
2018-12-03T17:42:28.150Z,6.05
2018-12-03T17:47:30.698Z,6.97
2018-12-03T17:52:33.174Z,6.85
2018-12-03T17:57:35.791Z,6.50
2018-12-03T18:02:44.989Z,6.10
2018-12-03T18:07:47.411Z,5.80
2018-12-03T18:12:49.806Z,5.78
2018-12-03T18:17:52.420Z,4.72
2018-12-03T18:22:55.231Z,3.70
2018-12-03T18:28:00.194Z,3.75
2018-12-03T18:33:03.612Z,3.42
2018-12-03T18:38:05.214Z,3.12
2018-12-03T18:43:07.710Z,2.67
2018-12-03T18:48:12.027Z,2.77
2018-12-03T18:53:21.262Z,3.05
2018-12-03T18:58:36.962Z,2.85
2018-12-03T19:03:39.490Z,3.42
2018-12-03T19:08:41.907Z,4.28
2018-12-03T19:13:44.410Z,4.92
2018-12-03T19:18:46.919Z,5.05
2018-12-03T19:23:49.409Z,6.62
2018-12-03T19:28:51.796Z,7.45
2018-12-03T19:33:54.165Z,6.45
2018-12-03T19:38:56.724Z,7.37
2018-12-03T19:43:59.110Z,7.20
2018-12-03T19:49:01.648Z,8.03
2018-12-03T19:54:04.536Z,8.68
2018-12-03T19:59:07.174Z,7.95
2018-12-03T20:04:30.082Z,7.92
2018-12-03T20:09:32.611Z,8.18
2018-12-03T20:14:35.160Z,7.12
2018-12-03T20:19:37.622Z,7.20
2018-12-03T20:24:40.005Z,7.22
2018-12-03T20:29:56.713Z,6.37
2018-12-03T20:35:08.507Z,5.95
2018-12-03T20:40:17.396Z,5.80
2018-12-03T20:45:30.489Z,5.62
2018-12-03T20:50:55.105Z,5.78
2018-12-03T20:55:59.234Z,7.47
2018-12-03T21:01:01.902Z,5.20
2018-12-03T21:06:04.559Z,5.30
2018-12-03T21:11:07.283Z,4.05
2018-12-03T21:16:09.710Z,3.83
2018-12-03T21:21:13.601Z,3.52
2018-12-03T21:26:16.315Z,3.80
2018-12-03T21:31:18.836Z,3.22
2018-12-03T21:36:21.324Z,3.42
2018-12-03T21:41:24.226Z,3.22
2018-12-03T21:46:26.727Z,3.12
2018-12-03T21:51:29.424Z,2.65
2018-12-03T21:56:31.871Z,2.70
2018-12-03T22:01:34.309Z,2.65
2018-12-03T22:06:36.983Z,2.20
2018-12-03T22:11:39.469Z,1.77
2018-12-03T22:16:41.916Z,2.10
2018-12-03T22:21:44.379Z,2.30
2018-12-03T22:26:46.971Z,2.40
2018-12-03T22:31:49.363Z,2.17
2018-12-03T22:36:51.931Z,2.62
2018-12-03T22:41:54.845Z,2.10
2018-12-03T22:46:58.799Z,2.33
2018-12-03T22:52:01.423Z,2.10
2018-12-03T22:57:04.796Z,3.10
2018-12-03T23:02:07.331Z,2.00
2018-12-03T23:07:09.927Z,1.70
2018-12-03T23:12:12.589Z,1.80
2018-12-03T23:17:15.194Z,2.10
2018-12-03T23:22:17.587Z,2.02
2018-12-03T23:27:20.235Z,2.77
2018-12-03T23:32:22.982Z,1.95
2018-12-03T23:37:25.408Z,2.12
2018-12-03T23:42:28.369Z,2.12
2018-12-03T23:47:30.762Z,1.67
2018-12-03T23:52:33.201Z,2.45
2018-12-03T23:57:35.625Z,2.40
